createdAt,value
2023-04-16T00:00:09.629Z,8.10
2023-04-16T00:03:24.047Z,7.98
2023-04-16T00:06:37.085Z,8.01
2023-04-16T00:09:49.493Z,8.08
2023-04-16T00:13:02.140Z,8.00
2023-04-16T00:16:14.505Z,8.07
2023-04-16T00:19:27.152Z,8.09
2023-04-16T00:22:39.659Z,7.91
2023-04-16T00:25:53.829Z,7.70
2023-04-16T00:29:06.300Z,7.70
2023-04-16T00:32:19.069Z,7.23
2023-04-16T00:35:31.492Z,7.31
2023-04-16T00:38:44.185Z,7.04
2023-04-16T00:41:56.650Z,7.24
2023-04-16T00:45:10.369Z,7.10
2023-04-16T00:48:22.737Z,7.09
2023-04-16T00:51:36.413Z,6.95
2023-04-16T00:54:48.941Z,6.98
2023-04-16T00:58:01.633Z,7.02
2023-04-16T01:01:16.719Z,6.99
2023-04-16T01:04:30.943Z,6.74
2023-04-16T01:07:43.391Z,6.64
2023-04-16T01:10:56.425Z,6.86
2023-04-16T01:14:08.813Z,6.62
2023-04-16T01:17:21.473Z,6.49
2023-04-16T01:20:36.815Z,6.78
2023-04-16T01:23:49.876Z,6.86
2023-04-16T01:27:02.248Z,6.84
2023-04-16T01:30:14.847Z,6.95
2023-04-16T01:33:28.129Z,6.82
2023-04-16T01:36:40.832Z,6.77
2023-04-16T01:39:53.255Z,6.41
2023-04-16T01:43:05.975Z,6.49
2023-04-16T01:46:20.552Z,6.42
2023-04-16T01:49:33.933Z,6.34
2023-04-16T01:52:46.805Z,6.47
2023-04-16T01:55:59.466Z,6.48
2023-04-16T01:59:12.419Z,6.40
2023-04-16T02:02:28.360Z,6.45
2023-04-16T02:05:41.419Z,6.47
2023-04-16T02:08:53.926Z,6.35
2023-04-16T02:12:06.720Z,6.33
2023-04-16T02:15:19.301Z,6.37
2023-04-16T02:18:31.994Z,6.32
2023-04-16T02:21:44.895Z,6.26
2023-04-16T02:24:57.383Z,6.22
2023-04-16T02:28:11.045Z,6.16
2023-04-16T02:31:23.720Z,6.11
2023-04-16T02:34:36.678Z,6.29
2023-04-16T02:37:49.700Z,6.18
2023-04-16T02:41:02.374Z,6.03
2023-04-16T02:44:14.747Z,6.01
2023-04-16T02:47:27.432Z,6.08
2023-04-16T02:50:39.875Z,6.10
2023-04-16T02:53:52.496Z,6.03
2023-04-16T02:57:06.099Z,5.98
2023-04-16T03:00:19.123Z,5.97
2023-04-16T03:03:31.448Z,5.95
2023-04-16T03:06:44.129Z,5.84
2023-04-16T03:09:56.980Z,5.97
2023-04-16T03:13:09.645Z,5.92
2023-04-16T03:16:22.539Z,5.69
2023-04-16T03:19:35.404Z,5.62
2023-04-16T03:22:47.861Z,5.67
2023-04-16T03:26:00.615Z,5.92
2023-04-16T03:29:14.168Z,6.23
2023-04-16T03:32:27.245Z,6.24
2023-04-16T03:35:40.189Z,6.35
2023-04-16T03:38:53.410Z,6.45
2023-04-16T03:42:06.141Z,6.37
2023-04-16T03:45:19.630Z,6.27
2023-04-16T03:48:32.855Z,6.29
2023-04-16T03:51:46.122Z,6.21
2023-04-16T03:54:58.499Z,6.15
2023-04-16T03:58:11.498Z,6.19
2023-04-16T04:01:23.977Z,6.01
2023-04-16T04:04:38.043Z,6.15
2023-04-16T04:07:50.678Z,6.15
2023-04-16T04:11:03.393Z,6.09
2023-04-16T04:14:16.130Z,6.13
2023-04-16T04:17:28.999Z,6.02
2023-04-16T04:20:41.446Z,6.01
2023-04-16T04:23:56.066Z,6.05
2023-04-16T04:27:08.964Z,6.15
2023-04-16T04:30:21.763Z,6.26
2023-04-16T04:33:34.153Z,6.39
2023-04-16T04:36:47.046Z,6.57
2023-04-16T04:39:59.476Z,6.52
2023-04-16T04:43:12.341Z,6.62
2023-04-16T04:46:24.962Z,6.97
2023-04-16T04:49:37.670Z,6.76
2023-04-16T04:52:50.087Z,6.82
2023-04-16T04:56:12.176Z,7.02
2023-04-16T04:59:25.672Z,7.14
2023-04-16T05:02:38.759Z,7.23
2023-04-16T05:05:51.387Z,7.41
2023-04-16T05:09:04.289Z,7.38
2023-04-16T05:12:16.639Z,7.68
2023-04-16T05:15:29.266Z,7.73
2023-04-16T05:18:41.889Z,8.02
2023-04-16T05:21:54.584Z,8.47
2023-04-16T05:25:07.135Z,8.49
2023-04-16T05:28:19.877Z,8.32
2023-04-16T05:31:32.188Z,8.32
2023-04-16T05:34:44.806Z,8.41
2023-04-16T05:37:57.154Z,8.47
2023-04-16T05:41:09.808Z,8.84
2023-04-16T05:44:22.236Z,9.01
2023-04-16T05:47:34.891Z,9.11
2023-04-16T05:50:47.292Z,9.17
2023-04-16T05:53:59.942Z,9.25
2023-04-16T05:57:13.807Z,9.42
2023-04-16T06:00:27.225Z,9.79
2023-04-16T06:03:39.931Z,9.43
2023-04-16T06:06:52.353Z,9.88
2023-04-16T06:10:05.348Z,9.86
2023-04-16T06:13:18.464Z,10.17
2023-04-16T06:16:31.210Z,10.32
2023-04-16T06:19:43.576Z,10.32
2023-04-16T06:22:56.361Z,10.34
2023-04-16T06:26:08.673Z,10.44
2023-04-16T06:29:24.131Z,10.67
2023-04-16T06:32:43.453Z,10.82
2023-04-16T06:35:56.686Z,10.57
2023-04-16T06:39:09.404Z,10.69
2023-04-16T06:42:22.373Z,11.24
2023-04-16T06:45:34.888Z,10.92
2023-04-16T06:48:47.625Z,11.27
2023-04-16T06:51:59.984Z,11.28
2023-04-16T06:55:12.641Z,11.42
2023-04-16T06:58:25.042Z,11.57
2023-04-16T07:01:37.683Z,11.45
2023-04-16T07:04:50.114Z,11.38
2023-04-16T07:08:02.742Z,11.22
2023-04-16T07:11:15.120Z,11.63
2023-04-16T07:14:27.821Z,11.77
2023-04-16T07:17:40.280Z,11.75
2023-04-16T07:20:52.907Z,12.03
2023-04-16T07:24:05.372Z,11.79
2023-04-16T07:27:18.044Z,12.37
2023-04-16T07:30:34.238Z,12.46
2023-04-16T07:33:47.110Z,12.73
2023-04-16T07:36:59.422Z,12.89
2023-04-16T07:40:12.319Z,12.78
2023-04-16T07:43:24.663Z,12.70
2023-04-16T07:46:46.460Z,13.05
2023-04-16T07:49:59.981Z,13.11
2023-04-16T07:53:12.692Z,13.10
2023-04-16T07:56:25.065Z,13.10
2023-04-16T07:59:37.680Z,13.32
2023-04-16T08:02:50.161Z,13.53
2023-04-16T08:06:02.934Z,13.68
2023-04-16T08:09:15.301Z,13.88
2023-04-16T08:12:27.945Z,13.85
2023-04-16T08:15:40.336Z,13.93
2023-04-16T08:18:52.993Z,14.18
2023-04-16T08:22:05.479Z,14.45
2023-04-16T08:25:18.240Z,14.49
2023-04-16T08:28:30.970Z,14.49
2023-04-16T08:31:43.710Z,14.46
2023-04-16T08:34:56.214Z,14.82
2023-04-16T08:38:08.984Z,15.00
2023-04-16T08:41:21.924Z,15.03
2023-04-16T08:44:35.851Z,15.17
2023-04-16T08:47:49.759Z,15.13
2023-04-16T08:51:02.448Z,15.15
2023-04-16T08:54:15.440Z,15.13
2023-04-16T08:57:31.023Z,15.17
2023-04-16T09:00:43.646Z,14.89
2023-04-16T09:03:56.420Z,14.86
2023-04-16T09:07:09.480Z,14.77
2023-04-16T09:10:22.236Z,14.83
2023-04-16T09:13:35.173Z,14.83
2023-04-16T09:16:48.152Z,15.01
2023-04-16T09:20:00.585Z,15.10
2023-04-16T09:23:13.199Z,15.29
2023-04-16T09:26:25.600Z,15.25
2023-04-16T09:29:41.587Z,15.64
2023-04-16T09:33:22.793Z,15.99
2023-04-16T09:36:36.379Z,16.23
2023-04-16T09:39:55.955Z,16.04
2023-04-16T09:43:18.280Z,15.89
2023-04-16T09:46:31.911Z,15.84
2023-04-16T09:49:44.653Z,15.99
2023-04-16T09:52:57.040Z,15.92
2023-04-16T09:56:11.731Z,16.22
2023-04-16T09:59:31.189Z,16.22
2023-04-16T10:02:43.942Z,16.24
2023-04-16T10:05:56.597Z,16.32
2023-04-16T10:09:12.358Z,16.68
2023-04-16T10:12:25.401Z,16.92
2023-04-16T10:15:40.176Z,16.73
2023-04-16T10:18:53.071Z,17.09
2023-04-16T10:22:05.577Z,16.32
2023-04-16T10:25:18.358Z,16.51
2023-04-16T10:28:30.756Z,16.95
2023-04-16T10:31:43.368Z,16.93
2023-04-16T10:34:55.906Z,17.16
2023-04-16T10:38:51.132Z,17.41
2023-04-16T10:42:12.895Z,17.37
2023-04-16T10:45:46.828Z,17.48
2023-04-16T10:49:03.346Z,17.76
2023-04-16T10:52:17.406Z,17.35
2023-04-16T10:55:29.840Z,17.75
2023-04-16T10:58:42.674Z,17.79
2023-04-16T11:01:56.135Z,17.37
2023-04-16T11:05:09.719Z,17.36
2023-04-16T11:08:26.383Z,17.97
2023-04-16T11:11:39.627Z,18.28
2023-04-16T11:14:53.256Z,18.16
2023-04-16T11:18:07.134Z,18.45
2023-04-16T11:21:19.697Z,18.39
2023-04-16T11:24:32.775Z,18.38
2023-04-16T11:27:45.122Z,18.36
2023-04-16T11:30:57.820Z,18.22
2023-04-16T11:34:10.209Z,18.37
2023-04-16T11:37:40.459Z,18.71
2023-04-16T11:40:54.185Z,19.03
2023-04-16T11:44:19.715Z,19.23
2023-04-16T11:47:32.164Z,19.14
2023-04-16T11:50:45.064Z,19.07
2023-04-16T11:53:58.771Z,19.15
2023-04-16T11:57:11.560Z,19.44
2023-04-16T12:00:24.749Z,19.59
2023-04-16T12:03:44.251Z,19.58
2023-04-16T12:07:06.899Z,19.28
2023-04-16T12:10:19.553Z,19.13
2023-04-16T12:13:39.768Z,19.09
2023-04-16T12:16:52.509Z,18.80
2023-04-16T12:20:09.818Z,19.17
2023-04-16T12:23:30.041Z,19.26
2023-04-16T12:26:43.251Z,19.65
2023-04-16T12:30:07.238Z,19.93
2023-04-16T12:33:19.651Z,19.70
2023-04-16T12:36:32.242Z,20.00
2023-04-16T12:39:45.486Z,20.04
2023-04-16T12:42:59.570Z,20.17
2023-04-16T12:46:11.964Z,20.50
2023-04-16T12:49:25.309Z,20.83
2023-04-16T12:52:37.661Z,20.95
2023-04-16T12:55:50.510Z,20.10
2023-04-16T12:59:03.352Z,20.80
2023-04-16T13:02:16.810Z,20.83
2023-04-16T13:05:29.355Z,20.81
2023-04-16T13:08:42.987Z,20.52
2023-04-16T13:11:55.410Z,20.59
2023-04-16T13:15:08.748Z,20.52
2023-04-16T13:18:21.243Z,20.54
2023-04-16T13:21:34.188Z,20.68
2023-04-16T13:24:46.537Z,20.56
2023-04-16T13:27:59.178Z,20.41
2023-04-16T13:31:11.581Z,20.42
2023-04-16T13:34:24.243Z,20.32
2023-04-16T13:37:36.594Z,20.43
2023-04-16T13:40:49.311Z,20.64
2023-04-16T13:44:01.656Z,20.49
2023-04-16T13:47:14.341Z,20.44
2023-04-16T13:50:26.757Z,20.94
2023-04-16T13:53:39.404Z,21.16
2023-04-16T13:56:51.844Z,21.80
2023-04-16T14:00:04.867Z,21.59
2023-04-16T14:03:17.155Z,21.85
2023-04-16T14:06:29.828Z,22.12
2023-04-16T14:09:42.134Z,22.30
2023-04-16T14:12:55.917Z,21.82
2023-04-16T14:16:08.324Z,22.10
2023-04-16T14:19:21.444Z,22.45
2023-04-16T14:22:33.874Z,22.25
2023-04-16T14:25:46.542Z,22.67
2023-04-16T14:28:59.188Z,23.41
2023-04-16T14:32:11.922Z,23.76
2023-04-16T14:35:24.397Z,23.46
2023-04-16T14:38:37.128Z,22.62
2023-04-16T14:41:49.459Z,22.47
2023-04-16T14:45:02.708Z,22.08
2023-04-16T14:48:15.091Z,21.88
2023-04-16T14:51:27.756Z,22.10
2023-04-16T14:54:40.160Z,22.45
2023-04-16T14:57:52.809Z,22.60
2023-04-16T15:01:05.229Z,22.45
2023-04-16T15:04:18.163Z,22.52
2023-04-16T15:07:30.691Z,22.23
2023-04-16T15:10:45.770Z,22.01
2023-04-16T15:13:58.164Z,21.89
2023-04-16T15:17:10.918Z,21.74
2023-04-16T15:20:23.457Z,21.02
2023-04-16T15:23:36.415Z,21.30
2023-04-16T15:26:48.768Z,21.11
2023-04-16T15:30:03.358Z,20.09
2023-04-16T15:33:16.285Z,20.07
2023-04-16T15:36:29.014Z,19.50
2023-04-16T15:39:41.409Z,20.17
2023-04-16T15:42:55.549Z,19.64
2023-04-16T15:46:08.921Z,19.57
2023-04-16T15:49:21.714Z,20.36
2023-04-16T15:52:34.020Z,20.44
2023-04-16T15:55:46.661Z,20.71
2023-04-16T15:58:59.106Z,20.91
2023-04-16T16:02:11.922Z,21.36
2023-04-16T16:05:24.565Z,21.57
2023-04-16T16:08:38.375Z,20.98
2023-04-16T16:11:53.128Z,20.10
2023-04-16T16:15:06.597Z,19.43
2023-04-16T16:18:19.191Z,19.24
2023-04-16T16:21:32.572Z,19.27
2023-04-16T16:24:45.408Z,18.40
2023-04-16T16:27:58.876Z,18.32
2023-04-16T16:31:12.545Z,18.69
2023-04-16T16:34:24.942Z,18.87
2023-04-16T16:37:37.900Z,19.01
2023-04-16T16:40:50.195Z,18.58
2023-04-16T16:44:02.828Z,18.30
2023-04-16T16:47:15.542Z,17.74
2023-04-16T16:50:28.175Z,17.90
2023-04-16T16:53:40.828Z,17.42
2023-04-16T16:56:53.454Z,17.55
2023-04-16T17:00:14.306Z,17.23
2023-04-16T17:03:27.076Z,17.50
2023-04-16T17:06:39.697Z,17.42
2023-04-16T17:09:52.493Z,17.13
2023-04-16T17:13:04.862Z,17.29
2023-04-16T17:16:17.770Z,17.21
2023-04-16T17:19:30.113Z,16.95
2023-04-16T17:22:42.757Z,16.67
2023-04-16T17:25:55.139Z,16.47
2023-04-16T17:29:07.751Z,16.17
2023-04-16T17:32:20.226Z,16.05
2023-04-16T17:35:33.945Z,15.98
2023-04-16T17:38:46.360Z,16.01
2023-04-16T17:42:01.258Z,15.89
2023-04-16T17:45:13.720Z,15.73
2023-04-16T17:48:26.393Z,15.72
2023-04-16T17:51:38.847Z,15.99
2023-04-16T17:54:53.230Z,15.76
2023-04-16T17:58:05.832Z,15.71
2023-04-16T18:01:18.522Z,15.68
2023-04-16T18:04:31.434Z,15.56
2023-04-16T18:07:44.107Z,15.53
2023-04-16T18:10:56.945Z,15.48
2023-04-16T18:14:11.585Z,15.46
2023-04-16T18:17:24.567Z,15.43
2023-04-16T18:20:36.909Z,15.45
2023-04-16T18:23:49.585Z,15.41
2023-04-16T18:27:05.132Z,15.34
2023-04-16T18:30:23.458Z,15.25
2023-04-16T18:33:55.494Z,15.20
2023-04-16T18:37:10.117Z,15.15
2023-04-16T18:40:22.444Z,15.02
2023-04-16T18:43:35.056Z,14.91
2023-04-16T18:46:47.492Z,14.97
2023-04-16T18:50:00.170Z,14.86
2023-04-16T18:53:12.622Z,14.78
2023-04-16T18:56:25.445Z,14.65
2023-04-16T18:59:37.819Z,14.61
2023-04-16T19:02:50.672Z,14.55
2023-04-16T19:06:04.684Z,14.45
2023-04-16T19:09:17.504Z,14.41
2023-04-16T19:12:30.014Z,14.28
2023-04-16T19:15:42.698Z,14.20
2023-04-16T19:18:55.085Z,14.05
2023-04-16T19:22:07.732Z,14.03
2023-04-16T19:25:21.245Z,14.02
2023-04-16T19:28:33.869Z,13.99
2023-04-16T19:31:47.169Z,13.87
2023-04-16T19:34:59.851Z,13.75
2023-04-16T19:38:12.185Z,13.70
2023-04-16T19:41:24.787Z,13.65
2023-04-16T19:44:37.088Z,13.69
2023-04-16T19:47:51.289Z,13.64
2023-04-16T19:51:04.290Z,13.61
2023-04-16T19:54:17.648Z,13.61
2023-04-16T19:57:30.040Z,13.55
2023-04-16T20:00:43.222Z,13.54
2023-04-16T20:03:56.240Z,13.52
2023-04-16T20:07:08.621Z,13.46
2023-04-16T20:10:21.434Z,13.43
2023-04-16T20:13:34.056Z,13.46
2023-04-16T20:16:46.717Z,13.44
2023-04-16T20:20:01.065Z,13.36
2023-04-16T20:23:14.011Z,13.35
2023-04-16T20:26:28.438Z,13.37
2023-04-16T20:29:41.445Z,13.35
2023-04-16T20:32:53.822Z,13.32
2023-04-16T20:36:06.899Z,13.29
2023-04-16T20:39:20.451Z,13.27
2023-04-16T20:42:33.195Z,13.25
2023-04-16T20:45:46.191Z,13.21
2023-04-16T20:48:58.822Z,13.21
2023-04-16T20:52:11.421Z,13.20
2023-04-16T20:55:24.213Z,13.24
2023-04-16T20:58:36.580Z,13.25
2023-04-16T21:01:49.349Z,13.29
2023-04-16T21:05:01.989Z,13.28
2023-04-16T21:08:14.717Z,13.26
2023-04-16T21:11:29.293Z,13.30
2023-04-16T21:14:41.911Z,13.28
2023-04-16T21:17:54.408Z,13.37
2023-04-16T21:21:07.034Z,13.30
2023-04-16T21:24:19.453Z,13.28
2023-04-16T21:27:32.098Z,13.26
2023-04-16T21:30:44.470Z,13.27
2023-04-16T21:33:57.149Z,13.27
2023-04-16T21:37:10.444Z,13.20
2023-04-16T21:40:23.110Z,13.20
2023-04-16T21:43:35.421Z,13.09
2023-04-16T21:46:48.114Z,13.07
2023-04-16T21:50:00.501Z,12.98
2023-04-16T21:53:13.169Z,12.90
2023-04-16T21:56:26.048Z,12.94
2023-04-16T21:59:39.018Z,12.89
2023-04-16T22:02:51.653Z,12.81
2023-04-16T22:06:05.375Z,12.81
2023-04-16T22:09:17.765Z,12.76
2023-04-16T22:12:30.808Z,12.77
2023-04-16T22:15:43.107Z,12.74
2023-04-16T22:18:56.642Z,12.74
2023-04-16T22:22:08.985Z,12.71
2023-04-16T22:25:21.567Z,12.69
2023-04-16T22:28:33.888Z,12.67
2023-04-16T22:31:46.596Z,12.65
2023-04-16T22:34:58.975Z,12.67
2023-04-16T22:38:11.646Z,12.70
2023-04-16T22:41:24.085Z,12.69
2023-04-16T22:44:36.860Z,12.64
2023-04-16T22:47:49.233Z,12.65
2023-04-16T22:51:02.554Z,12.55
2023-04-16T22:54:14.962Z,12.57
2023-04-16T22:57:27.636Z,12.52
2023-04-16T23:00:40.198Z,12.52
2023-04-16T23:03:52.880Z,12.48
2023-04-16T23:07:05.331Z,12.49
2023-04-16T23:10:17.978Z,12.47
2023-04-16T23:13:30.672Z,12.42
2023-04-16T23:16:43.274Z,12.45
2023-04-16T23:19:56.005Z,12.45
2023-04-16T23:23:08.646Z,12.47
2023-04-16T23:26:21.052Z,12.50
2023-04-16T23:29:33.663Z,12.55
2023-04-16T23:32:45.996Z,12.54
2023-04-16T23:35:58.684Z,12.58
2023-04-16T23:39:11.202Z,12.61
2023-04-16T23:42:23.916Z,12.62
2023-04-16T23:45:36.353Z,12.54
2023-04-16T23:48:49.115Z,12.62
2023-04-16T23:52:01.864Z,12.59
2023-04-16T23:55:14.476Z,12.52
2023-04-16T23:58:26.940Z,12.44
